Private Wetterstation Sandau
Wetterdaten: Sonntag, 18.11.2012
Datum Zeit Temp. A. Feuchte A. Luftdruck Regen Wind Richtung Richtung Taupunkt Windchill
18.11.2012 00:01 1,3 C 93 % 1011,7 hPa 0,0 l/m 0,0 km/h (0 Bft) SO 135 0,3 C 1,3 C
18.11.2012 00:06 1,3 C 93 % 1011,6 hPa 0,0 l/m 1,4 km/h (1 Bft) SO 135 0,3 C 1,3 C
18.11.2012 00:11 1,3 C 93 % 1011,7 hPa 0,0 l/m 4,0 km/h (1 Bft) S-SO 157 0,3 C 1,3 C
18.11.2012 00:16 1,2 C 93 % 1011,5 hPa 0,0 l/m 0,0 km/h (0 Bft) S-SW 202 0,2 C 1,2 C
18.11.2012 00:21 1,2 C 93 % 1011,7 hPa 0,0 l/m 1,1 km/h (1 Bft) S-SO 157 0,2 C 1,2 C
18.11.2012 00:26 1,2 C 93 % 1011,7 hPa 0,0 l/m 2,2 km/h (1 Bft) S-SO 157 0,2 C 1,2 C
18.11.2012 00:31 1,1 C 93 % 1011,6 hPa 0,0 l/m 2,2 km/h (1 Bft) S 180 0,1 C 1,1 C
18.11.2012 00:36 1,1 C 93 % 1011,8 hPa 0,0 l/m 2,2 km/h (1 Bft) S 180 0,1 C 1,1 C
18.11.2012 00:41 1,1 C 93 % 1011,7 hPa 0,0 l/m 4,0 km/h (1 Bft) SO 135 0,1 C 1,1 C
18.11.2012 00:46 1,1 C 93 % 1011,6 hPa 0,0 l/m 3,2 km/h (1 Bft) S-SW 202 0,1 C 1,1 C
18.11.2012 00:51 1,0 C 93 % 1011,6 hPa 0,0 l/m 2,2 km/h (1 Bft) S 180 -0,0 C 1,0 C
18.11.2012 00:56 0,9 C 93 % 1011,6 hPa 0,0 l/m 4,3 km/h (1 Bft) S-SO 157 -0,1 C 0,9 C
18.11.2012 01:01 0,9 C 93 % 1011,6 hPa 0,0 l/m 2,5 km/h (1 Bft) S 180 -0,1 C 0,9 C
18.11.2012 01:06 0,9 C 93 % 1011,7 hPa 0,0 l/m 2,9 km/h (1 Bft) S-SO 157 -0,1 C 0,9 C
18.11.2012 01:11 0,9 C 93 % 1011,7 hPa 0,0 l/m 2,2 km/h (1 Bft) S-SW 202 -0,1 C 0,9 C
18.11.2012 01:16 0,8 C 93 % 1011,6 hPa 0,0 l/m 0,0 km/h (0 Bft) S-SO 157 -0,2 C 0,8 C
18.11.2012 01:21 0,8 C 93 % 1011,5 hPa 0,0 l/m 0,0 km/h (0 Bft) S-SO 157 -0,2 C 0,8 C
18.11.2012 01:26 0,8 C 93 % 1011,6 hPa 0,0 l/m 2,9 km/h (1 Bft) S-SO 157 -0,2 C 0,8 C
18.11.2012 01:31 0,8 C 93 % 1011,5 hPa 0,0 l/m 1,1 km/h (1 Bft) S-SO 157 -0,2 C 0,8 C
18.11.2012 01:36 0,8 C 93 % 1011,5 hPa 0,0 l/m 2,5 km/h (1 Bft) S-SO 157 -0,2 C 0,8 C
18.11.2012 01:41 0,8 C 93 % 1011,6 hPa 0,0 l/m 3,2 km/h (1 Bft) SO 135 -0,2 C 0,8 C
18.11.2012 01:46 0,9 C 93 % 1011,7 hPa 0,0 l/m 0,0 km/h (0 Bft) S 180 -0,1 C 0,9 C
18.11.2012 01:51 0,9 C 93 % 1011,6 hPa 0,0 l/m 1,1 km/h (1 Bft) SO 135 -0,1 C 0,9 C
18.11.2012 01:56 0,9 C 93 % 1011,6 hPa 0,0 l/m 2,2 km/h (1 Bft) S-SO 157 -0,1 C 0,9 C
18.11.2012 02:01 0,9 C 93 % 1011,4 hPa 0,0 l/m 3,2 km/h (1 Bft) S 180 -0,1 C 0,9 C
18.11.2012 02:06 0,9 C 93 % 1011,6 hPa 0,0 l/m 3,6 km/h (1 Bft) S-SO 157 -0,1 C 0,9 C
18.11.2012 02:11 0,9 C 93 % 1011,5 hPa 0,0 l/m 3,2 km/h (1 Bft) S 180 -0,1 C 0,9 C
18.11.2012 02:16 0,9 C 93 % 1011,5 hPa 0,0 l/m 0,0 km/h (0 Bft) SO 135 -0,1 C 0,9 C
18.11.2012 02:21 0,9 C 93 % 1011,5 hPa 0,0 l/m 4,0 km/h (1 Bft) S-SO 157 -0,1 C 0,9 C
18.11.2012 02:26 1,0 C 93 % 1011,6 hPa 0,0 l/m 0,0 km/h (0 Bft) SO 135 -0,0 C 1,0 C
18.11.2012 02:31 1,0 C 93 % 1011,6 hPa 0,0 l/m 3,6 km/h (1 Bft) S-SW 202 -0,0 C 1,0 C
18.11.2012 02:36 1,0 C 93 % 1011,5 hPa 0,0 l/m 2,9 km/h (1 Bft) S-SO 157 -0,0 C 1,0 C
18.11.2012 02:41 1,1 C 93 % 1011,4 hPa 0,0 l/m 6,1 km/h (2 Bft) S-SW 202 0,1 C -0,8 C
18.11.2012 02:46 1,1 C 93 % 1011,3 hPa 0,0 l/m 2,2 km/h (1 Bft) S-SO 157 0,1 C 1,1 C
18.11.2012 02:51 1,1 C 93 % 1011,3 hPa 0,0 l/m 2,2 km/h (1 Bft) S-SO 157 0,1 C 1,1 C
18.11.2012 02:56 1,1 C 93 % 1011,3 hPa 0,0 l/m 5,8 km/h (2 Bft) S-SO 157 0,1 C -0,7 C
18.11.2012 03:01 1,2 C 93 % 1011,3 hPa 0,0 l/m 2,5 km/h (1 Bft) SO 135 0,2 C 1,2 C
18.11.2012 03:06 1,2 C 93 % 1011,1 hPa 0,0 l/m 3,2 km/h (1 Bft) S-SO 157 0,2 C 1,2 C
18.11.2012 03:11 1,3 C 93 % 1011,2 hPa 0,0 l/m 4,0 km/h (1 Bft) SW 225 0,3 C 1,3 C
18.11.2012 03:16 1,3 C 93 % 1011,3 hPa 0,0 l/m 2,2 km/h (1 Bft) S-SO 157 0,3 C 1,3 C
18.11.2012 03:21 1,3 C 93 % 1011,3 hPa 0,0 l/m 0,0 km/h (0 Bft) S-SO 157 0,3 C 1,3 C
18.11.2012 03:26 1,3 C 93 % 1011,1 hPa 0,0 l/m 3,2 km/h (1 Bft) S 180 0,3 C 1,3 C
18.11.2012 03:31 1,3 C 93 % 1011,0 hPa 0,0 l/m 2,2 km/h (1 Bft) S 180 0,3 C 1,3 C
18.11.2012 03:36 1,3 C 93 % 1011,0 hPa 0,0 l/m 6,5 km/h (2 Bft) SW 225 0,3 C -0,7 C
18.11.2012 03:41 1,3 C 93 % 1011,0 hPa 0,0 l/m 4,0 km/h (1 Bft) SO 135 0,3 C 1,3 C
18.11.2012 03:46 1,3 C 93 % 1011,2 hPa 0,0 l/m 7,2 km/h (2 Bft) S-SW 202 0,3 C -1,0 C
18.11.2012 03:51 1,3 C 93 % 1011,2 hPa 0,0 l/m 4,0 km/h (1 Bft) S-SO 157 0,3 C 1,3 C
18.11.2012 03:56 1,3 C 93 % 1011,2 hPa 0,0 l/m 5,4 km/h (1 Bft) S-SW 202 0,3 C -0,3 C
18.11.2012 04:01 1,3 C 93 % 1011,1 hPa 0,0 l/m 6,5 km/h (2 Bft) SW 225 0,3 C -0,7 C
18.11.2012 04:06 1,3 C 93 % 1011,2 hPa 0,0 l/m 5,4 km/h (1 Bft) S 180 0,3 C -0,3 C
18.11.2012 04:11 1,3 C 93 % 1011,3 hPa 0,0 l/m 3,6 km/h (1 Bft) S 180 0,3 C 1,3 C
18.11.2012 04:16 1,3 C 93 % 1011,2 hPa 0,0 l/m 0,0 km/h (0 Bft) S-SW 202 0,3 C 1,3 C
18.11.2012 04:21 1,4 C 93 % 1011,2 hPa 0,0 l/m 5,0 km/h (1 Bft) S-SO 157 0,4 C -0,0 C
18.11.2012 04:26 1,4 C 93 % 1011,2 hPa 0,0 l/m 0,0 km/h (0 Bft) S 180 0,4 C 1,4 C
18.11.2012 04:31 1,4 C 93 % 1011,0 hPa 0,0 l/m 7,9 km/h (2 Bft) S 180 0,4 C -1,1 C
18.11.2012 04:36 1,4 C 93 % 1010,9 hPa 0,0 l/m 4,7 km/h (1 Bft) SW 225 0,4 C 0,1 C
18.11.2012 04:41 1,5 C 93 % 1010,9 hPa 0,0 l/m 4,0 km/h (1 Bft) S-SO 157 0,5 C 1,5 C
18.11.2012 04:46 1,5 C 93 % 1011,0 hPa 0,0 l/m 3,2 km/h (1 Bft) S-SW 202 0,5 C 1,5 C
18.11.2012 04:51 1,5 C 93 % 1011,0 hPa 0,0 l/m 6,1 km/h (2 Bft) S-SW 202 0,5 C -0,3 C
18.11.2012 04:56 1,6 C 93 % 1010,9 hPa 0,0 l/m 2,2 km/h (1 Bft) S-SO 157 0,6 C 1,6 C
18.11.2012 05:01 1,6 C 93 % 1011,1 hPa 0,0 l/m 0,0 km/h (0 Bft) S 180 0,6 C 1,6 C
18.11.2012 05:06 1,6 C 93 % 1011,1 hPa 0,0 l/m 5,0 km/h (1 Bft) S-SW 202 0,6 C 0,2 C
18.11.2012 05:11 1,6 C 93 % 1011,0 hPa 0,0 l/m 7,2 km/h (2 Bft) SW 225 0,6 C -0,6 C
18.11.2012 05:16 1,8 C 93 % 1011,1 hPa 0,0 l/m 6,1 km/h (2 Bft) S-SO 157 0,8 C 0,0 C
18.11.2012 05:21 1,8 C 93 % 1011,2 hPa 0,0 l/m 3,2 km/h (1 Bft) S-SO 157 0,8 C 1,8 C
18.11.2012 05:26 1,8 C 93 % 1011,2 hPa 0,0 l/m 3,2 km/h (1 Bft) SW 225 0,8 C 1,8 C
18.11.2012 05:31 1,8 C 93 % 1011,2 hPa 0,0 l/m 4,3 km/h (1 Bft) S-SO 157 0,8 C 1,8 C
18.11.2012 05:36 1,9 C 93 % 1011,2 hPa 0,0 l/m 2,9 km/h (1 Bft) S-SO 157 0,9 C 1,9 C
18.11.2012 05:41 1,9 C 93 % 1011,3 hPa 0,0 l/m 0,0 km/h (0 Bft) S-SO 157 0,9 C 1,9 C
18.11.2012 05:46 1,9 C 93 % 1011,2 hPa 0,0 l/m 0,0 km/h (0 Bft) S-SO 157 0,9 C 1,9 C
18.11.2012 05:51 2,0 C 92 % 1011,2 hPa 0,0 l/m 2,5 km/h (1 Bft) S-SO 157 0,8 C 2,0 C
18.11.2012 05:56 2,1 C 92 % 1011,1 hPa 0,0 l/m 4,0 km/h (1 Bft) S 180 0,9 C 2,1 C
18.11.2012 06:01 2,1 C 92 % 1011,1 hPa 0,0 l/m 3,2 km/h (1 Bft) S-SW 202 0,9 C 2,1 C
18.11.2012 06:06 2,1 C 92 % 1011,1 hPa 0,0 l/m 2,2 km/h (1 Bft) S 180 0,9 C 2,1 C
18.11.2012 06:11 2,2 C 92 % 1011,2 hPa 0,0 l/m 2,9 km/h (1 Bft) S 180 1,0 C 2,2 C
18.11.2012 06:16 2,2 C 92 % 1011,1 hPa 0,0 l/m 3,2 km/h (1 Bft) S-SW 202 1,0 C 2,2 C
18.11.2012 06:21 2,2 C 92 % 1011,2 hPa 0,0 l/m 2,2 km/h (1 Bft) S 180 1,0 C 2,2 C
18.11.2012 06:26 2,2 C 92 % 1011,4 hPa 0,0 l/m 3,6 km/h (1 Bft) S-SO 157 1,0 C 2,2 C
18.11.2012 06:31 2,3 C 92 % 1011,2 hPa 0,0 l/m 2,5 km/h (1 Bft) S-SO 157 1,1 C 2,3 C
18.11.2012 06:36 2,3 C 92 % 1011,2 hPa 0,0 l/m 7,2 km/h (2 Bft) S 180 1,1 C 0,2 C
18.11.2012 06:41 2,3 C 92 % 1011,3 hPa 0,0 l/m 8,6 km/h (2 Bft) S-SW 202 1,1 C -0,2 C
18.11.2012 06:46 2,3 C 92 % 1011,3 hPa 0,0 l/m 9,0 km/h (2 Bft) S-SW 202 1,1 C -0,3 C
18.11.2012 06:51 2,3 C 92 % 1011,3 hPa 0,0 l/m 1,8 km/h (1 Bft) S 180 1,1 C 2,3 C
18.11.2012 06:56 2,3 C 92 % 1011,4 hPa 0,0 l/m 6,5 km/h (2 Bft) S 180 1,1 C 0,4 C
18.11.2012 07:01 2,3 C 92 % 1011,4 hPa 0,0 l/m 2,9 km/h (1 Bft) S 180 1,1 C 2,3 C
18.11.2012 07:06 2,4 C 92 % 1011,5 hPa 0,0 l/m 4,0 km/h (1 Bft) SW 225 1,2 C 2,4 C
18.11.2012 07:11 2,4 C 92 % 1011,4 hPa 0,0 l/m 5,4 km/h (1 Bft) S 180 1,2 C 1,0 C
18.11.2012 07:16 2,4 C 92 % 1011,3 hPa 0,0 l/m 5,0 km/h (1 Bft) S-SO 157 1,2 C 1,1 C
18.11.2012 07:21 2,4 C 92 % 1011,3 hPa 0,0 l/m 6,5 km/h (2 Bft) S-SW 202 1,2 C 0,6 C
18.11.2012 07:26 2,5 C 92 % 1011,4 hPa 0,0 l/m 3,6 km/h (1 Bft) S-SW 202 1,3 C 2,5 C
18.11.2012 07:31 2,5 C 92 % 1011,4 hPa 0,0 l/m 6,8 km/h (2 Bft) S-SO 157 1,3 C 0,6 C
18.11.2012 07:36 2,5 C 92 % 1011,4 hPa 0,0 l/m 5,0 km/h (1 Bft) SW 225 1,3 C 1,2 C
18.11.2012 07:41 2,5 C 93 % 1011,5 hPa 0,0 l/m 7,2 km/h (2 Bft) S-SW 202 1,5 C 0,4 C
18.11.2012 07:46 2,6 C 93 % 1011,5 hPa 0,0 l/m 7,6 km/h (2 Bft) S-SW 202 1,6 C 0,4 C
18.11.2012 07:51 2,6 C 93 % 1011,5 hPa 0,0 l/m 5,8 km/h (2 Bft) S-SO 157 1,6 C 1,0 C
18.11.2012 07:56 2,7 C 93 % 1011,6 hPa 0,0 l/m 9,0 km/h (2 Bft) S 180 1,7 C 0,2 C
18.11.2012 08:01 2,7 C 93 % 1011,7 hPa 0,0 l/m 4,0 km/h (1 Bft) S 180 1,7 C 2,7 C
18.11.2012 08:06 2,8 C 93 % 1011,5 hPa 0,0 l/m 5,8 km/h (2 Bft) S-SW 202 1,8 C 1,3 C
18.11.2012 08:11 2,8 C 93 % 1011,7 hPa 0,0 l/m 6,1 km/h (2 Bft) S 180 1,8 C 1,2 C
18.11.2012 08:16 2,8 C 93 % 1011,7 hPa 0,0 l/m 5,8 km/h (2 Bft) SW 225 1,8 C 1,3 C
18.11.2012 08:21 2,9 C 93 % 1011,7 hPa 0,0 l/m 4,7 km/h (1 Bft) S 180 1,9 C 1,8 C
18.11.2012 08:26 2,9 C 93 % 1011,8 hPa 0,0 l/m 4,0 km/h (1 Bft) S 180 1,9 C 2,9 C
18.11.2012 08:31 2,9 C 93 % 1011,8 hPa 0,0 l/m 5,0 km/h (1 Bft) S-SW 202 1,9 C 1,7 C
18.11.2012 08:36 3,0 C 93 % 1011,8 hPa 0,0 l/m 6,5 km/h (2 Bft) SW 225 2,0 C 1,2 C
18.11.2012 08:41 3,0 C 93 % 1011,7 hPa 0,0 l/m 3,6 km/h (1 Bft) S-SW 202 2,0 C 3,0 C
18.11.2012 08:46 3,0 C 93 % 1011,9 hPa 0,0 l/m 4,7 km/h (1 Bft) SW 225 2,0 C 1,9 C
18.11.2012 08:51 3,0 C 93 % 1011,8 hPa 0,0 l/m 0,0 km/h (0 Bft) S-SO 157 2,0 C 3,0 C
18.11.2012 08:56 3,1 C 93 % 1011,7 hPa 0,0 l/m 1,4 km/h (1 Bft) S-SO 157 2,1 C 3,1 C
18.11.2012 09:01 3,1 C 93 % 1011,7 hPa 0,0 l/m 5,8 km/h (2 Bft) S-SO 157 2,1 C 1,6 C
18.11.2012 09:06 3,1 C 93 % 1011,7 hPa 0,0 l/m 5,0 km/h (1 Bft) S-SO 157 2,1 C 1,9 C
18.11.2012 09:11 3,2 C 93 % 1012,0 hPa 0,0 l/m 4,7 km/h (1 Bft) SO 135 2,2 C 2,2 C
18.11.2012 09:16 3,2 C 93 % 1011,9 hPa 0,0 l/m 3,2 km/h (1 Bft) S-SW 202 2,2 C 3,2 C
18.11.2012 09:21 3,2 C 93 % 1012,0 hPa 0,0 l/m 5,0 km/h (1 Bft) S 180 2,2 C 2,0 C
18.11.2012 09:26 3,3 C 93 % 1012,1 hPa 0,0 l/m 4,7 km/h (1 Bft) S 180 2,3 C 2,3 C
18.11.2012 09:31 3,3 C 93 % 1011,9 hPa 0,0 l/m 4,7 km/h (1 Bft) S-SO 157 2,3 C 2,3 C
18.11.2012 09:36 3,3 C 93 % 1012,0 hPa 0,0 l/m 4,7 km/h (1 Bft) S 180 2,3 C 2,3 C
18.11.2012 09:41 3,4 C 93 % 1012,0 hPa 0,0 l/m 4,0 km/h (1 Bft) S-SW 202 2,4 C 3,4 C
18.11.2012 09:46 3,4 C 93 % 1012,0 hPa 0,0 l/m 5,8 km/h (2 Bft) W-SW 247 2,4 C 2,0 C
18.11.2012 09:51 3,5 C 93 % 1012,2 hPa 0,0 l/m 4,7 km/h (1 Bft) S-SW 202 2,5 C 2,5 C
18.11.2012 09:56 3,6 C 93 % 1012,0 hPa 0,0 l/m 4,3 km/h (1 Bft) S 180 2,6 C 3,6 C
18.11.2012 10:01 3,6 C 93 % 1012,0 hPa 0,0 l/m 5,0 km/h (1 Bft) S 180 2,6 C 2,5 C
18.11.2012 10:06 3,7 C 93 % 1012,2 hPa 0,0 l/m 7,6 km/h (2 Bft) S-SW 202 2,7 C 1,7 C
18.11.2012 10:11 3,8 C 93 % 1012,1 hPa 0,0 l/m 6,1 km/h (2 Bft) S-SW 202 2,8 C 2,3 C
18.11.2012 10:16 3,8 C 93 % 1012,1 hPa 0,0 l/m 7,9 km/h (2 Bft) S-SW 202 2,8 C 1,8 C
18.11.2012 10:21 3,9 C 93 % 1012,2 hPa 0,0 l/m 4,7 km/h (1 Bft) S 180 2,9 C 3,0 C
18.11.2012 10:26 3,9 C 93 % 1012,2 hPa 0,0 l/m 1,4 km/h (1 Bft) S-SW 202 2,9 C 3,9 C
18.11.2012 10:31 3,9 C 94 % 1012,4 hPa 0,0 l/m 2,2 km/h (1 Bft) S-SO 157 3,0 C 3,9 C
18.11.2012 10:36 4,1 C 94 % 1012,3 hPa 0,0 l/m 5,4 km/h (1 Bft) S-SW 202 3,2 C 2,9 C
18.11.2012 10:41 4,1 C 94 % 1012,2 hPa 0,0 l/m 2,5 km/h (1 Bft) S 180 3,2 C 4,1 C
18.11.2012 10:46 4,1 C 94 % 1012,2 hPa 0,0 l/m 2,5 km/h (1 Bft) S 180 3,2 C 4,1 C
18.11.2012 10:51 4,2 C 94 % 1012,4 hPa 0,0 l/m 7,2 km/h (2 Bft) SW 225 3,3 C 2,4 C
18.11.2012 10:56 4,3 C 94 % 1012,4 hPa 0,0 l/m 3,6 km/h (1 Bft) SO 135 3,4 C 4,3 C
18.11.2012 11:01 4,4 C 94 % 1012,2 hPa 0,0 l/m 4,3 km/h (1 Bft) W-SW 247 3,5 C 4,4 C
18.11.2012 11:06 4,6 C 94 % 1012,4 hPa 0,0 l/m 2,5 km/h (1 Bft) S-SW 202 3,7 C 4,6 C
18.11.2012 11:11 4,8 C 93 % 1012,2 hPa 0,0 l/m 4,0 km/h (1 Bft) S-SW 202 3,8 C 4,8 C
18.11.2012 11:16 4,9 C 94 % 1012,3 hPa 0,0 l/m 4,0 km/h (1 Bft) S-SO 157 4,0 C 4,9 C
18.11.2012 11:21 5,1 C 93 % 1012,3 hPa 0,0 l/m 5,0 km/h (1 Bft) W-SW 247 4,1 C 4,2 C
18.11.2012 11:26 5,0 C 93 % 1012,3 hPa 0,0 l/m 5,8 km/h (2 Bft) SW 225 4,0 C 3,8 C
18.11.2012 11:31 5,0 C 93 % 1012,4 hPa 0,0 l/m 6,8 km/h (2 Bft) S-SW 202 4,0 C 3,5 C
18.11.2012 11:36 5,0 C 93 % 1012,4 hPa 0,0 l/m 3,6 km/h (1 Bft) SW 225 4,0 C 5,0 C
18.11.2012 11:41 5,0 C 93 % 1012,4 hPa 0,0 l/m 2,5 km/h (1 Bft) S 180 4,0 C 5,0 C
18.11.2012 11:46 5,1 C 93 % 1012,3 hPa 0,0 l/m 2,2 km/h (1 Bft) S-SO 157 4,1 C 5,1 C
18.11.2012 11:51 5,1 C 93 % 1012,3 hPa 0,0 l/m 2,9 km/h (1 Bft) S 180 4,1 C 5,1 C
18.11.2012 11:56 5,1 C 93 % 1012,3 hPa 0,0 l/m 4,3 km/h (1 Bft) SW 225 4,1 C 5,1 C
18.11.2012 12:01 5,1 C 93 % 1012,2 hPa 0,0 l/m 2,2 km/h (1 Bft) S 180 4,1 C 5,1 C
18.11.2012 12:06 5,2 C 93 % 1012,3 hPa 0,0 l/m 2,9 km/h (1 Bft) W-SW 247 4,2 C 5,2 C
18.11.2012 12:11 5,2 C 93 % 1012,3 hPa 0,0 l/m 3,6 km/h (1 Bft) W-SW 247 4,2 C 5,2 C
18.11.2012 12:16 5,3 C 93 % 1012,1 hPa 0,0 l/m 4,0 km/h (1 Bft) W-SW 247 4,3 C 5,3 C
18.11.2012 12:21 5,3 C 93 % 1012,2 hPa 0,0 l/m 4,7 km/h (1 Bft) S 180 4,3 C 4,5 C
18.11.2012 12:26 5,3 C 93 % 1012,1 hPa 0,0 l/m 2,9 km/h (1 Bft) SW 225 4,3 C 5,3 C
18.11.2012 12:31 5,3 C 93 % 1012,3 hPa 0,0 l/m 3,6 km/h (1 Bft) S-SW 202 4,3 C 5,3 C
18.11.2012 12:36 5,4 C 93 % 1012,1 hPa 0,0 l/m 4,3 km/h (1 Bft) SO 135 4,4 C 5,4 C
18.11.2012 12:41 5,4 C 93 % 1012,2 hPa 0,0 l/m 4,0 km/h (1 Bft) SW 225 4,4 C 5,4 C
18.11.2012 12:46 5,5 C 93 % 1012,2 hPa 0,0 l/m 5,4 km/h (1 Bft) W 270 4,5 C 4,5 C
18.11.2012 12:51 5,5 C 93 % 1012,5 hPa 0,0 l/m 5,4 km/h (1 Bft) SW 225 4,5 C 4,5 C
18.11.2012 12:56 5,5 C 93 % 1012,4 hPa 0,0 l/m 3,6 km/h (1 Bft) S-SO 157 4,5 C 5,5 C
18.11.2012 13:01 5,5 C 93 % 1012,3 hPa 0,0 l/m 4,0 km/h (1 Bft) SW 225 4,5 C 5,5 C
18.11.2012 13:06 5,6 C 93 % 1012,2 hPa 0,0 l/m 4,3 km/h (1 Bft) S-SW 202 4,6 C 5,6 C
18.11.2012 13:11 5,6 C 93 % 1012,2 hPa 0,0 l/m 2,5 km/h (1 Bft) SW 225 4,6 C 5,6 C
18.11.2012 13:16 5,6 C 93 % 1012,3 hPa 0,0 l/m 2,2 km/h (1 Bft) SW 225 4,6 C 5,6 C
18.11.2012 13:21 5,6 C 93 % 1012,3 hPa 0,0 l/m 3,2 km/h (1 Bft) S-SW 202 4,6 C 5,6 C
18.11.2012 13:26 5,6 C 93 % 1012,1 hPa 0,0 l/m 4,7 km/h (1 Bft) S-SW 202 4,6 C 4,9 C
18.11.2012 13:31 5,6 C 93 % 1012,4 hPa 0,0 l/m 2,2 km/h (1 Bft) S-SW 202 4,6 C 5,6 C
18.11.2012 13:36 5,8 C 93 % 1012,3 hPa 0,0 l/m 4,7 km/h (1 Bft) S 180 4,8 C 5,1 C
18.11.2012 13:41 5,8 C 93 % 1012,3 hPa 0,0 l/m 0,0 km/h (0 Bft) S 180 4,8 C 5,8 C
18.11.2012 13:46 5,8 C 93 % 1012,4 hPa 0,0 l/m 0,0 km/h (0 Bft) SW 225 4,8 C 5,8 C
18.11.2012 13:51 5,8 C 93 % 1012,4 hPa 0,0 l/m 1,1 km/h (1 Bft) W 270 4,8 C 5,8 C
18.11.2012 13:56 5,8 C 93 % 1012,4 hPa 0,0 l/m 1,4 km/h (1 Bft) S-SW 202 4,8 C 5,8 C
18.11.2012 14:01 5,8 C 93 % 1012,4 hPa 0,0 l/m 7,6 km/h (2 Bft) S 180 4,8 C 4,2 C
18.11.2012 14:06 5,8 C 93 % 1012,4 hPa 0,0 l/m 3,2 km/h (1 Bft) S-SW 202 4,8 C 5,8 C
18.11.2012 14:11 5,9 C 93 % 1012,4 hPa 0,0 l/m 0,0 km/h (0 Bft) S 180 4,9 C 5,9 C
18.11.2012 14:16 5,9 C 93 % 1012,5 hPa 0,0 l/m 1,4 km/h (1 Bft) S-SW 202 4,9 C 5,9 C
18.11.2012 14:21 5,8 C 93 % 1012,5 hPa 0,0 l/m 1,8 km/h (1 Bft) S-SW 202 4,8 C 5,8 C
18.11.2012 14:26 5,9 C 93 % 1012,6 hPa 0,0 l/m 1,4 km/h (1 Bft) S-SO 157 4,9 C 5,9 C
18.11.2012 14:31 5,9 C 93 % 1012,6 hPa 0,0 l/m 2,2 km/h (1 Bft) S-SW 202 4,9 C 5,9 C
18.11.2012 14:36 5,9 C 93 % 1012,7 hPa 0,0 l/m 7,2 km/h (2 Bft) S-SO 157 4,9 C 4,4 C
18.11.2012 14:41 5,9 C 93 % 1012,7 hPa 0,0 l/m 6,1 km/h (2 Bft) S-SW 202 4,9 C 4,7 C
18.11.2012 14:46 5,9 C 93 % 1012,8 hPa 0,0 l/m 4,7 km/h (1 Bft) SO 135 4,9 C 5,2 C
18.11.2012 14:51 5,9 C 93 % 1012,8 hPa 0,0 l/m 0,0 km/h (0 Bft) S 180 4,9 C 5,9 C
18.11.2012 14:56 5,9 C 93 % 1012,8 hPa 0,0 l/m 2,5 km/h (1 Bft) S-SW 202 4,9 C 5,9 C
18.11.2012 15:01 5,9 C 93 % 1012,8 hPa 0,0 l/m 1,8 km/h (1 Bft) W-SW 247 4,9 C 5,9 C
18.11.2012 15:06 5,9 C 93 % 1012,8 hPa 0,0 l/m 2,5 km/h (1 Bft) S 180 4,9 C 5,9 C
18.11.2012 15:11 5,9 C 93 % 1012,8 hPa 0,0 l/m 3,2 km/h (1 Bft) S 180 4,9 C 5,9 C
18.11.2012 15:16 5,9 C 93 % 1013,1 hPa 0,0 l/m 1,4 km/h (1 Bft) S-SO 157 4,9 C 5,9 C
18.11.2012 15:21 5,9 C 93 % 1013,1 hPa 0,0 l/m 4,0 km/h (1 Bft) SW 225 4,9 C 5,9 C
18.11.2012 15:26 5,9 C 93 % 1013,3 hPa 0,0 l/m 2,2 km/h (1 Bft) S 180 4,9 C 5,9 C
18.11.2012 15:31 5,9 C 93 % 1013,3 hPa 0,0 l/m 2,5 km/h (1 Bft) S-SW 202 4,9 C 5,9 C
18.11.2012 15:36 5,9 C 93 % 1013,4 hPa 0,0 l/m 0,0 km/h (0 Bft) S 180 4,9 C 5,9 C
18.11.2012 15:41 5,9 C 93 % 1013,4 hPa 0,0 l/m 0,0 km/h (0 Bft) W-SW 247 4,9 C 5,9 C
18.11.2012 15:46 5,9 C 93 % 1013,4 hPa 0,0 l/m 1,8 km/h (1 Bft) S-SW 202 4,9 C 5,9 C
18.11.2012 15:51 5,9 C 93 % 1013,2 hPa 0,0 l/m 4,7 km/h (1 Bft) W-SW 247 4,9 C 5,2 C
18.11.2012 15:56 5,9 C 93 % 1013,3 hPa 0,0 l/m 2,5 km/h (1 Bft) S-SW 202 4,9 C 5,9 C
18.11.2012 16:01 5,9 C 93 % 1013,3 hPa 0,0 l/m 2,2 km/h (1 Bft) S-SW 202 4,9 C 5,9 C
18.11.2012 16:06 5,9 C 93 % 1013,3 hPa 0,0 l/m 5,8 km/h (2 Bft) SW 225 4,9 C 4,8 C
18.11.2012 16:11 5,9 C 93 % 1013,4 hPa 0,0 l/m 4,3 km/h (1 Bft) SW 225 4,9 C 5,9 C
18.11.2012 16:16 5,9 C 93 % 1013,4 hPa 0,0 l/m 1,1 km/h (1 Bft) S-SW 202 4,9 C 5,9 C
18.11.2012 16:21 5,9 C 93 % 1013,5 hPa 0,0 l/m 4,7 km/h (1 Bft) S-SW 202 4,9 C 5,2 C
18.11.2012 16:26 5,9 C 93 % 1013,4 hPa 0,0 l/m 0,0 km/h (0 Bft) S-SW 202 4,9 C 5,9 C
18.11.2012 16:31 5,9 C 93 % 1013,4 hPa 0,0 l/m 2,2 km/h (1 Bft) W-SW 247 4,9 C 5,9 C
18.11.2012 16:36 5,9 C 93 % 1013,5 hPa 0,0 l/m 0,0 km/h (0 Bft) W-SW 247 4,9 C 5,9 C
18.11.2012 16:41 5,9 C 93 % 1013,6 hPa 0,0 l/m 0,0 km/h (0 Bft) W 270 4,9 C 5,9 C
18.11.2012 16:46 5,9 C 93 % 1013,6 hPa 0,0 l/m 3,6 km/h (1 Bft) W 270 4,9 C 5,9 C
18.11.2012 16:51 5,9 C 93 % 1013,6 hPa 0,0 l/m 1,4 km/h (1 Bft) W 270 4,9 C 5,9 C
18.11.2012 16:56 5,9 C 93 % 1013,7 hPa 0,0 l/m 0,0 km/h (0 Bft) W 270 4,9 C 5,9 C
18.11.2012 17:01 5,9 C 93 % 1013,8 hPa 0,0 l/m 1,8 km/h (1 Bft) W-SW 247 4,9 C 5,9 C
18.11.2012 17:06 5,9 C 93 % 1013,8 hPa 0,0 l/m 1,1 km/h (1 Bft) W-SW 247 4,9 C 5,9 C
18.11.2012 17:11 5,9 C 93 % 1013,9 hPa 0,0 l/m 0,0 km/h (0 Bft) W 270 4,9 C 5,9 C
18.11.2012 17:16 5,9 C 93 % 1014,0 hPa 0,0 l/m 1,4 km/h (1 Bft) W 270 4,9 C 5,9 C
18.11.2012 17:21 5,9 C 93 % 1014,0 hPa 0,0 l/m 1,1 km/h (1 Bft) W 270 4,9 C 5,9 C
18.11.2012 17:26 5,9 C 93 % 1014,2 hPa 0,0 l/m 0,0 km/h (0 Bft) W-SW 247 4,9 C 5,9 C
18.11.2012 17:31 5,9 C 93 % 1014,1 hPa 0,0 l/m 0,0 km/h (0 Bft) W-SW 247 4,9 C 5,9 C
18.11.2012 17:36 5,9 C 93 % 1014,1 hPa 0,0 l/m 0,0 km/h (0 Bft) W-SW 247 4,9 C 5,9 C
18.11.2012 17:41 5,9 C 93 % 1014,2 hPa 0,0 l/m 3,2 km/h (1 Bft) SW 225 4,9 C 5,9 C
18.11.2012 17:46 5,9 C 93 % 1014,4 hPa 0,0 l/m 1,4 km/h (1 Bft) S-SW 202 4,9 C 5,9 C
18.11.2012 17:51 5,9 C 93 % 1014,7 hPa 0,0 l/m 2,5 km/h (1 Bft) S-SW 202 4,9 C 5,9 C
18.11.2012 17:56 5,9 C 93 % 1014,6 hPa 0,0 l/m 2,2 km/h (1 Bft) SW 225 4,9 C 5,9 C
18.11.2012 18:01 5,9 C 93 % 1014,6 hPa 0,0 l/m 1,4 km/h (1 Bft) W-SW 247 4,9 C 5,9 C
18.11.2012 18:06 5,9 C 93 % 1014,7 hPa 0,0 l/m 0,0 km/h (0 Bft) W-SW 247 4,9 C 5,9 C
18.11.2012 18:11 5,9 C 93 % 1014,7 hPa 0,0 l/m 3,6 km/h (1 Bft) W-SW 247 4,9 C 5,9 C
18.11.2012 18:16 5,9 C 93 % 1014,9 hPa 0,0 l/m 2,2 km/h (1 Bft) W 270 4,9 C 5,9 C
18.11.2012 18:21 5,9 C 93 % 1014,8 hPa 0,0 l/m 0,0 km/h (0 Bft) W 270 4,9 C 5,9 C
18.11.2012 18:26 5,9 C 93 % 1014,9 hPa 0,0 l/m 1,4 km/h (1 Bft) W 270 4,9 C 5,9 C
18.11.2012 18:31 5,9 C 93 % 1015,0 hPa 0,0 l/m 0,0 km/h (0 Bft) W 270 4,9 C 5,9 C
18.11.2012 18:36 6,1 C 93 % 1015,0 hPa 0,0 l/m 0,0 km/h (0 Bft) W 270 5,1 C 6,1 C
18.11.2012 18:41 6,1 C 93 % 1015,2 hPa 0,0 l/m 0,0 km/h (0 Bft) W-NW 292 5,1 C 6,1 C
18.11.2012 18:46 6,1 C 93 % 1015,2 hPa 0,0 l/m 0,0 km/h (0 Bft) W-NW 292 5,1 C 6,1 C
18.11.2012 18:51 6,1 C 93 % 1015,3 hPa 0,0 l/m 0,0 km/h (0 Bft) W-NW 292 5,1 C 6,1 C
18.11.2012 18:56 6,1 C 93 % 1015,4 hPa 0,0 l/m 0,0 km/h (0 Bft) W-NW 292 5,1 C 6,1 C
18.11.2012 19:01 6,1 C 93 % 1015,6 hPa 0,5 l/m 1,8 km/h (1 Bft) NW 315 5,1 C 6,1 C
18.11.2012 19:06 6,2 C 93 % 1015,6 hPa 0,0 l/m 2,5 km/h (1 Bft) N-NW 337 5,2 C 6,2 C
18.11.2012 19:11 6,2 C 93 % 1015,7 hPa 0,0 l/m 2,2 km/h (1 Bft) N 360 5,2 C 6,2 C
18.11.2012 19:16 6,2 C 93 % 1015,8 hPa 0,0 l/m 0,0 km/h (0 Bft) N-NW 337 5,2 C 6,2 C
18.11.2012 19:21 6,3 C 93 % 1015,7 hPa 0,0 l/m 4,0 km/h (1 Bft) N-NO 22 5,3 C 6,3 C
18.11.2012 19:26 6,4 C 94 % 1015,7 hPa 0,0 l/m 4,0 km/h (1 Bft) N-NO 22 5,5 C 6,4 C
18.11.2012 19:31 6,4 C 94 % 1015,8 hPa 0,0 l/m 7,2 km/h (2 Bft) N 360 5,5 C 5,0 C
18.11.2012 19:36 6,4 C 94 % 1015,8 hPa 0,0 l/m 4,7 km/h (1 Bft) N-NW 337 5,5 C 5,8 C
18.11.2012 19:41 6,5 C 94 % 1015,9 hPa 0,5 l/m 1,1 km/h (1 Bft) N 360 5,6 C 6,5 C
18.11.2012 19:46 6,5 C 94 % 1016,0 hPa 0,0 l/m 1,1 km/h (1 Bft) N 360 5,6 C 6,5 C
18.11.2012 19:51 6,5 C 94 % 1016,0 hPa 0,0 l/m 0,0 km/h (0 Bft) N 360 5,6 C 6,5 C
18.11.2012 19:56 6,5 C 94 % 1016,2 hPa 0,0 l/m 3,2 km/h (1 Bft) N 360 5,6 C 6,5 C
18.11.2012 20:01 6,5 C 94 % 1016,2 hPa 0,0 l/m 4,7 km/h (1 Bft) N-NO 22 5,6 C 5,9 C
18.11.2012 20:06 6,5 C 94 % 1016,3 hPa 0,0 l/m 7,6 km/h (2 Bft) N 360 5,6 C 5,0 C
18.11.2012 20:11 6,5 C 94 % 1016,3 hPa 0,0 l/m 4,7 km/h (1 Bft) N-NO 22 5,6 C 5,9 C
18.11.2012 20:16 6,5 C 94 % 1016,2 hPa 0,0 l/m 3,2 km/h (1 Bft) N 360 5,6 C 6,5 C
18.11.2012 20:21 6,5 C 94 % 1016,3 hPa 0,0 l/m 3,6 km/h (1 Bft) N-NO 22 5,6 C 6,5 C
18.11.2012 20:26 6,5 C 94 % 1016,4 hPa 0,0 l/m 2,2 km/h (1 Bft) N-NO 22 5,6 C 6,5 C
18.11.2012 20:31 6,4 C 94 % 1016,4 hPa 0,0 l/m 2,2 km/h (1 Bft) N-NO 22 5,5 C 6,4 C
18.11.2012 20:36 6,4 C 94 % 1016,5 hPa 0,0 l/m 5,8 km/h (2 Bft) N-NO 22 5,5 C 5,4 C
18.11.2012 20:41 6,4 C 94 % 1016,5 hPa 0,0 l/m 0,0 km/h (0 Bft) N-NO 22 5,5 C 6,4 C
18.11.2012 20:46 6,4 C 94 % 1016,5 hPa 0,0 l/m 4,7 km/h (1 Bft) N 360 5,5 C 5,8 C
18.11.2012 20:51 6,4 C 94 % 1016,5 hPa 0,0 l/m 1,4 km/h (1 Bft) N 360 5,5 C 6,4 C
18.11.2012 20:56 6,3 C 94 % 1016,7 hPa 0,0 l/m 5,8 km/h (2 Bft) N-NO 22 5,4 C 5,3 C
18.11.2012 21:01 6,3 C 94 % 1016,8 hPa 0,0 l/m 2,5 km/h (1 Bft) N 360 5,4 C 6,3 C
18.11.2012 21:06 6,3 C 94 % 1016,8 hPa 0,0 l/m 2,5 km/h (1 Bft) N 360 5,4 C 6,3 C
18.11.2012 21:11 6,2 C 94 % 1016,8 hPa 0,0 l/m 3,2 km/h (1 Bft) N 360 5,3 C 6,2 C
18.11.2012 21:16 6,2 C 94 % 1016,9 hPa 0,0 l/m 2,2 km/h (1 Bft) N 360 5,3 C 6,2 C
18.11.2012 21:21 6,2 C 94 % 1016,9 hPa 0,0 l/m 3,2 km/h (1 Bft) N 360 5,3 C 6,2 C
18.11.2012 21:26 6,1 C 94 % 1017,0 hPa 0,0 l/m 0,0 km/h (0 Bft) N 360 5,2 C 6,1 C
18.11.2012 21:31 6,1 C 94 % 1017,1 hPa 0,0 l/m 1,1 km/h (1 Bft) N 360 5,2 C 6,1 C
18.11.2012 21:36 6,1 C 94 % 1017,0 hPa 0,0 l/m 1,1 km/h (1 Bft) N 360 5,2 C 6,1 C
18.11.2012 21:41 6,1 C 94 % 1017,0 hPa 0,0 l/m 0,0 km/h (0 Bft) N 360 5,2 C 6,1 C
18.11.2012 21:46 6,1 C 94 % 1017,1 hPa 0,0 l/m 0,0 km/h (0 Bft) N 360 5,2 C 6,1 C
18.11.2012 21:51 6,1 C 94 % 1017,2 hPa 0,0 l/m 0,0 km/h (0 Bft) N 360 5,2 C 6,1 C
18.11.2012 21:56 5,9 C 94 % 1017,3 hPa 0,0 l/m 0,0 km/h (0 Bft) N 360 5,0 C 5,9 C
18.11.2012 22:01 5,9 C 94 % 1017,3 hPa 0,0 l/m 0,0 km/h (0 Bft) N 360 5,0 C 5,9 C
18.11.2012 22:06 5,9 C 94 % 1017,4 hPa 0,0 l/m 0,0 km/h (0 Bft) N 360 5,0 C 5,9 C
18.11.2012 22:11 5,9 C 94 % 1017,4 hPa 0,0 l/m 0,0 km/h (0 Bft) N 360 5,0 C 5,9 C
18.11.2012 22:16 5,8 C 94 % 1017,4 hPa 0,0 l/m 0,0 km/h (0 Bft) N 360 4,9 C 5,8 C
18.11.2012 22:21 5,8 C 94 % 1017,5 hPa 0,0 l/m 0,0 km/h (0 Bft) N 360 4,9 C 5,8 C
18.11.2012 22:26 5,8 C 94 % 1017,5 hPa 0,0 l/m 0,0 km/h (0 Bft) N 360 4,9 C 5,8 C
18.11.2012 22:31 5,8 C 94 % 1017,6 hPa 0,0 l/m 0,0 km/h (0 Bft) N 360 4,9 C 5,8 C
18.11.2012 22:36 5,8 C 94 % 1017,6 hPa 0,0 l/m 0,0 km/h (0 Bft) N 360 4,9 C 5,8 C
18.11.2012 22:41 5,8 C 94 % 1017,5 hPa 0,0 l/m 0,0 km/h (0 Bft) N 360 4,9 C 5,8 C
18.11.2012 22:46 5,7 C 94 % 1017,7 hPa 0,0 l/m 0,0 km/h (0 Bft) N 360 4,8 C 5,7 C
18.11.2012 22:51 5,6 C 94 % 1017,7 hPa 0,0 l/m 0,0 km/h (0 Bft) N 360 4,7 C 5,6 C
18.11.2012 22:56 5,6 C 94 % 1017,8 hPa 0,0 l/m 1,1 km/h (1 Bft) N 360 4,7 C 5,6 C
18.11.2012 23:01 5,6 C 94 % 1017,8 hPa 0,0 l/m 0,0 km/h (0 Bft) N 360 4,7 C 5,6 C
18.11.2012 23:06 5,6 C 94 % 1017,8 hPa 0,0 l/m 0,0 km/h (0 Bft) N 360 4,7 C 5,6 C
18.11.2012 23:11 5,6 C 94 % 1018,0 hPa 0,0 l/m 0,0 km/h (0 Bft) N 360 4,7 C 5,6 C
18.11.2012 23:16 5,6 C 94 % 1017,9 hPa 0,0 l/m 0,0 km/h (0 Bft) N 360 4,7 C 5,6 C
18.11.2012 23:21 5,6 C 94 % 1018,2 hPa 0,0 l/m 0,0 km/h (0 Bft) N 360 4,7 C 5,6 C
18.11.2012 23:26 5,5 C 94 % 1018,1 hPa 0,0 l/m 0,0 km/h (0 Bft) N 360 4,6 C 5,5 C
18.11.2012 23:31 5,5 C 94 % 1018,5 hPa 0,0 l/m 0,0 km/h (0 Bft) N 360 4,6 C 5,5 C
18.11.2012 23:36 5,5 C 94 % 1018,3 hPa 0,0 l/m 0,0 km/h (0 Bft) N 360 4,6 C 5,5 C
18.11.2012 23:41 5,5 C 94 % 1018,6 hPa 0,0 l/m 0,0 km/h (0 Bft) N 360 4,6 C 5,5 C
18.11.2012 23:46 5,4 C 94 % 1018,6 hPa 0,0 l/m 0,0 km/h (0 Bft) N 360 4,5 C 5,4 C
18.11.2012 23:51 5,4 C 94 % 1018,8 hPa 0,0 l/m 0,0 km/h (0 Bft) N 360 4,5 C 5,4 C
18.11.2012 23:56 5,4 C 94 % 1018,9 hPa 0,0 l/m 0,0 km/h (0 Bft) N 360 4,5 C 5,4 C
_ Min-Zeit 01:16 05:51 04:36 - 00:01 - - 01:16 04:31
Minimum _ 0,8 C 92 % 1010,9 hPa - 0,0 km/h (0 Bft) - - -0,2 C -1,1 C
_ Max-Zeit 19:41 10:31 23:56 19:01 06:46 - - 19:41 19:41
Maximum _ 6,5 C 94 % 1018,9 hPa 0,5 l/m 9,0 km/h
S-SW (2 Bft)
- - 5,6 C 6,5 C
Durchschnitt _ 4,1 C 93 % 1013,2 hPa #1,0 l/m 2,9 km/h (1 Bft) S-SW - 3,1 C 3,7 C
(c) by David Heller